sensor_id;sensor_type;location;lat;lon;timestamp;P1;durP1;ratioP1;P2;durP2;ratioP2
2053;SDS011;1032;52.542;13.440;2022-12-18T00:01:59;47.00;;;22.90;;
2053;SDS011;1032;52.542;13.440;2022-12-18T00:04:26;40.95;;;22.35;;
2053;SDS011;1032;52.542;13.440;2022-12-18T00:06:53;42.60;;;22.58;;
2053;SDS011;1032;52.542;13.440;2022-12-18T00:09:20;44.75;;;23.20;;
2053;SDS011;1032;52.542;13.440;2022-12-18T00:11:47;42.47;;;22.88;;
2053;SDS011;1032;52.542;13.440;2022-12-18T00:14:14;45.78;;;22.52;;
2053;SDS011;1032;52.542;13.440;2022-12-18T00:16:43;43.97;;;22.83;;
2053;SDS011;1032;52.542;13.440;2022-12-18T00:19:12;44.47;;;21.48;;
2053;SDS011;1032;52.542;13.440;2022-12-18T00:21:40;43.03;;;23.67;;
2053;SDS011;1032;52.542;13.440;2022-12-18T00:24:07;45.15;;;23.70;;
2053;SDS011;1032;52.542;13.440;2022-12-18T00:26:35;43.90;;;23.17;;
2053;SDS011;1032;52.542;13.440;2022-12-18T00:29:05;44.15;;;22.67;;
2053;SDS011;1032;52.542;13.440;2022-12-18T00:31:33;40.38;;;21.25;;
2053;SDS011;1032;52.542;13.440;2022-12-18T00:34:01;40.53;;;20.30;;
2053;SDS011;1032;52.542;13.440;2022-12-18T00:36:29;43.90;;;23.92;;
2053;SDS011;1032;52.542;13.440;2022-12-18T00:38:58;40.72;;;20.63;;
2053;SDS011;1032;52.542;13.440;2022-12-18T00:41:26;45.08;;;20.55;;
2053;SDS011;1032;52.542;13.440;2022-12-18T00:44:12;44.50;;;21.60;;
2053;SDS011;1032;52.542;13.440;2022-12-18T00:46:40;38.83;;;19.33;;
2053;SDS011;1032;52.542;13.440;2022-12-18T00:49:07;39.03;;;21.13;;
2053;SDS011;1032;52.542;13.440;2022-12-18T00:51:35;36.38;;;21.73;;
2053;SDS011;1032;52.542;13.440;2022-12-18T00:54:02;38.13;;;21.42;;
2053;SDS011;1032;52.542;13.440;2022-12-18T00:56:30;45.42;;;20.55;;
2053;SDS011;1032;52.542;13.440;2022-12-18T00:58:56;43.60;;;21.75;;
2053;SDS011;1032;52.542;13.440;2022-12-18T01:01:23;41.80;;;22.30;;
2053;SDS011;1032;52.542;13.440;2022-12-18T01:03:49;40.05;;;21.33;;
2053;SDS011;1032;52.542;13.440;2022-12-18T01:06:16;37.60;;;20.27;;
2053;SDS011;1032;52.542;13.440;2022-12-18T01:08:44;39.50;;;20.27;;
2053;SDS011;1032;52.542;13.440;2022-12-18T01:11:12;35.00;;;18.60;;
2053;SDS011;1032;52.542;13.440;2022-12-18T01:13:40;35.17;;;18.27;;
2053;SDS011;1032;52.542;13.440;2022-12-18T01:16:07;34.42;;;18.42;;
2053;SDS011;1032;52.542;13.440;2022-12-18T01:18:34;36.53;;;17.90;;
2053;SDS011;1032;52.542;13.440;2022-12-18T01:21:05;37.45;;;19.40;;
2053;SDS011;1032;52.542;13.440;2022-12-18T01:23:32;40.03;;;21.08;;
2053;SDS011;1032;52.542;13.440;2022-12-18T01:26:04;41.42;;;21.70;;
2053;SDS011;1032;52.542;13.440;2022-12-18T01:28:34;33.80;;;18.73;;
2053;SDS011;1032;52.542;13.440;2022-12-18T01:31:14;34.03;;;19.13;;
2053;SDS011;1032;52.542;13.440;2022-12-18T01:33:43;44.17;;;20.55;;
2053;SDS011;1032;52.542;13.440;2022-12-18T01:36:14;39.92;;;19.05;;
2053;SDS011;1032;52.542;13.440;2022-12-18T01:38:45;35.08;;;19.33;;
2053;SDS011;1032;52.542;13.440;2022-12-18T01:41:14;35.58;;;19.17;;
2053;SDS011;1032;52.542;13.440;2022-12-18T01:43:43;37.20;;;19.40;;
2053;SDS011;1032;52.542;13.440;2022-12-18T01:46:15;34.85;;;18.42;;
2053;SDS011;1032;52.542;13.440;2022-12-18T01:48:42;34.72;;;18.30;;
2053;SDS011;1032;52.542;13.440;2022-12-18T01:51:11;37.33;;;19.73;;
2053;SDS011;1032;52.542;13.440;2022-12-18T01:53:38;40.42;;;20.08;;
2053;SDS011;1032;52.542;13.440;2022-12-18T01:56:11;41.88;;;19.45;;
2053;SDS011;1032;52.542;13.440;2022-12-18T01:58:45;33.53;;;17.70;;
2053;SDS011;1032;52.542;13.440;2022-12-18T02:01:16;33.42;;;18.80;;
2053;SDS011;1032;52.542;13.440;2022-12-18T02:03:43;43.75;;;22.67;;
2053;SDS011;1032;52.542;13.440;2022-12-18T02:06:12;44.17;;;20.65;;
2053;SDS011;1032;52.542;13.440;2022-12-18T02:08:45;42.83;;;23.02;;
2053;SDS011;1032;52.542;13.440;2022-12-18T02:11:26;41.25;;;21.75;;
2053;SDS011;1032;52.542;13.440;2022-12-18T02:14:04;48.00;;;22.50;;
2053;SDS011;1032;52.542;13.440;2022-12-18T02:16:43;48.58;;;23.30;;
2053;SDS011;1032;52.542;13.440;2022-12-18T02:19:18;49.10;;;25.17;;
2053;SDS011;1032;52.542;13.440;2022-12-18T02:22:03;46.10;;;23.92;;
2053;SDS011;1032;52.542;13.440;2022-12-18T02:24:45;52.75;;;24.48;;
2053;SDS011;1032;52.542;13.440;2022-12-18T02:27:25;57.25;;;27.55;;
2053;SDS011;1032;52.542;13.440;2022-12-18T02:29:54;57.63;;;27.35;;
2053;SDS011;1032;52.542;13.440;2022-12-18T02:32:24;58.70;;;26.85;;
2053;SDS011;1032;52.542;13.440;2022-12-18T02:34:53;59.92;;;28.15;;
2053;SDS011;1032;52.542;13.440;2022-12-18T02:37:27;59.90;;;26.20;;
2053;SDS011;1032;52.542;13.440;2022-12-18T02:39:59;68.63;;;30.83;;
2053;SDS011;1032;52.542;13.440;2022-12-18T02:42:30;60.47;;;29.63;;
2053;SDS011;1032;52.542;13.440;2022-12-18T02:44:59;54.97;;;26.95;;
2053;SDS011;1032;52.542;13.440;2022-12-18T02:47:28;72.13;;;31.35;;
2053;SDS011;1032;52.542;13.440;2022-12-18T02:49:58;66.13;;;29.17;;
2053;SDS011;1032;52.542;13.440;2022-12-18T02:52:35;75.20;;;33.85;;
2053;SDS011;1032;52.542;13.440;2022-12-18T02:55:17;70.80;;;30.20;;
2053;SDS011;1032;52.542;13.440;2022-12-18T02:58:00;59.17;;;29.55;;
2053;SDS011;1032;52.542;13.440;2022-12-18T03:00:36;76.70;;;32.80;;
2053;SDS011;1032;52.542;13.440;2022-12-18T03:03:09;66.78;;;31.27;;
2053;SDS011;1032;52.542;13.440;2022-12-18T03:05:39;70.32;;;30.50;;
2053;SDS011;1032;52.542;13.440;2022-12-18T03:08:10;65.78;;;32.13;;
2053;SDS011;1032;52.542;13.440;2022-12-18T03:10:41;67.45;;;29.00;;
2053;SDS011;1032;52.542;13.440;2022-12-18T03:13:19;67.28;;;31.38;;
2053;SDS011;1032;52.542;13.440;2022-12-18T03:15:51;73.13;;;31.95;;
2053;SDS011;1032;52.542;13.440;2022-12-18T03:18:22;73.43;;;31.98;;
2053;SDS011;1032;52.542;13.440;2022-12-18T03:20:52;79.22;;;31.73;;
2053;SDS011;1032;52.542;13.440;2022-12-18T03:23:22;77.57;;;32.40;;
2053;SDS011;1032;52.542;13.440;2022-12-18T03:25:54;75.85;;;31.88;;
2053;SDS011;1032;52.542;13.440;2022-12-18T03:28:27;69.25;;;30.60;;
2053;SDS011;1032;52.542;13.440;2022-12-18T03:30:59;63.85;;;28.92;;
2053;SDS011;1032;52.542;13.440;2022-12-18T03:33:29;60.33;;;27.40;;
2053;SDS011;1032;52.542;13.440;2022-12-18T03:36:00;61.95;;;27.73;;
2053;SDS011;1032;52.542;13.440;2022-12-18T03:38:27;55.53;;;26.52;;
2053;SDS011;1032;52.542;13.440;2022-12-18T03:40:56;53.70;;;26.02;;
2053;SDS011;1032;52.542;13.440;2022-12-18T03:43:34;55.38;;;25.15;;
2053;SDS011;1032;52.542;13.440;2022-12-18T03:46:08;52.60;;;24.55;;
2053;SDS011;1032;52.542;13.440;2022-12-18T03:48:42;48.53;;;24.02;;
2053;SDS011;1032;52.542;13.440;2022-12-18T03:51:18;47.72;;;26.25;;
2053;SDS011;1032;52.542;13.440;2022-12-18T03:53:53;40.95;;;21.40;;
2053;SDS011;1032;52.542;13.440;2022-12-18T03:56:29;55.13;;;25.20;;
2053;SDS011;1032;52.542;13.440;2022-12-18T03:59:01;46.75;;;23.15;;
2053;SDS011;1032;52.542;13.440;2022-12-18T04:01:31;53.03;;;23.92;;
2053;SDS011;1032;52.542;13.440;2022-12-18T04:04:00;45.60;;;22.95;;
2053;SDS011;1032;52.542;13.440;2022-12-18T04:06:35;52.72;;;22.30;;
2053;SDS011;1032;52.542;13.440;2022-12-18T04:09:03;43.58;;;22.45;;
2053;SDS011;1032;52.542;13.440;2022-12-18T04:11:34;40.42;;;21.38;;
2053;SDS011;1032;52.542;13.440;2022-12-18T04:14:03;48.83;;;22.85;;
2053;SDS011;1032;52.542;13.440;2022-12-18T04:16:30;42.42;;;21.33;;
2053;SDS011;1032;52.542;13.440;2022-12-18T04:19:00;49.03;;;22.52;;
2053;SDS011;1032;52.542;13.440;2022-12-18T04:21:31;40.75;;;20.65;;
2053;SDS011;1032;52.542;13.440;2022-12-18T04:23:57;43.45;;;21.35;;
2053;SDS011;1032;52.542;13.440;2022-12-18T04:26:24;48.08;;;21.67;;
2053;SDS011;1032;52.542;13.440;2022-12-18T04:29:11;43.88;;;19.45;;
2053;SDS011;1032;52.542;13.440;2022-12-18T04:31:38;50.95;;;24.40;;
2053;SDS011;1032;52.542;13.440;2022-12-18T04:34:05;44.00;;;20.00;;
2053;SDS011;1032;52.542;13.440;2022-12-18T04:36:38;40.67;;;21.38;;
2053;SDS011;1032;52.542;13.440;2022-12-18T04:39:05;47.50;;;20.52;;
2053;SDS011;1032;52.542;13.440;2022-12-18T04:41:32;35.53;;;19.35;;
2053;SDS011;1032;52.542;13.440;2022-12-18T04:43:59;46.10;;;20.38;;
2053;SDS011;1032;52.542;13.440;2022-12-18T04:46:27;40.67;;;20.63;;
2053;SDS011;1032;52.542;13.440;2022-12-18T04:48:54;48.33;;;21.48;;
2053;SDS011;1032;52.542;13.440;2022-12-18T04:51:21;37.83;;;20.48;;
2053;SDS011;1032;52.542;13.440;2022-12-18T04:53:47;39.45;;;19.05;;
2053;SDS011;1032;52.542;13.440;2022-12-18T04:56:14;42.08;;;20.42;;
2053;SDS011;1032;52.542;13.440;2022-12-18T04:58:42;40.85;;;19.10;;
2053;SDS011;1032;52.542;13.440;2022-12-18T05:01:10;42.97;;;20.60;;
2053;SDS011;1032;52.542;13.440;2022-12-18T05:03:39;40.80;;;19.45;;
2053;SDS011;1032;52.542;13.440;2022-12-18T05:06:06;39.10;;;20.83;;
2053;SDS011;1032;52.542;13.440;2022-12-18T05:08:34;40.88;;;21.75;;
2053;SDS011;1032;52.542;13.440;2022-12-18T05:11:01;42.35;;;21.67;;
2053;SDS011;1032;52.542;13.440;2022-12-18T05:13:29;40.70;;;21.27;;
2053;SDS011;1032;52.542;13.440;2022-12-18T05:15:56;38.55;;;20.45;;
2053;SDS011;1032;52.542;13.440;2022-12-18T05:18:23;38.25;;;20.23;;
2053;SDS011;1032;52.542;13.440;2022-12-18T05:20:52;43.42;;;22.20;;
2053;SDS011;1032;52.542;13.440;2022-12-18T05:23:20;41.50;;;19.80;;
2053;SDS011;1032;52.542;13.440;2022-12-18T05:25:50;40.00;;;18.50;;
2053;SDS011;1032;52.542;13.440;2022-12-18T05:28:17;40.42;;;18.98;;
2053;SDS011;1032;52.542;13.440;2022-12-18T05:30:46;38.53;;;18.40;;
2053;SDS011;1032;52.542;13.440;2022-12-18T05:33:14;35.30;;;18.63;;
2053;SDS011;1032;52.542;13.440;2022-12-18T05:35:40;36.67;;;18.10;;
2053;SDS011;1032;52.542;13.440;2022-12-18T05:38:08;41.60;;;21.75;;
2053;SDS011;1032;52.542;13.440;2022-12-18T05:40:35;37.97;;;20.05;;
2053;SDS011;1032;52.542;13.440;2022-12-18T05:43:02;36.60;;;18.08;;
2053;SDS011;1032;52.542;13.440;2022-12-18T05:45:31;44.88;;;21.10;;
2053;SDS011;1032;52.542;13.440;2022-12-18T05:47:58;40.00;;;18.67;;
2053;SDS011;1032;52.542;13.440;2022-12-18T05:50:24;49.42;;;22.10;;
2053;SDS011;1032;52.542;13.440;2022-12-18T05:52:51;49.00;;;22.30;;
2053;SDS011;1032;52.542;13.440;2022-12-18T05:55:19;50.00;;;21.88;;
2053;SDS011;1032;52.542;13.440;2022-12-18T05:57:46;44.50;;;21.90;;
2053;SDS011;1032;52.542;13.440;2022-12-18T06:00:13;48.25;;;21.13;;
2053;SDS011;1032;52.542;13.440;2022-12-18T06:02:40;52.00;;;21.45;;
2053;SDS011;1032;52.542;13.440;2022-12-18T06:05:07;51.53;;;24.23;;
2053;SDS011;1032;52.542;13.440;2022-12-18T06:07:34;51.45;;;22.88;;
2053;SDS011;1032;52.542;13.440;2022-12-18T06:10:00;48.90;;;23.35;;
2053;SDS011;1032;52.542;13.440;2022-12-18T06:12:28;46.80;;;23.10;;
2053;SDS011;1032;52.542;13.440;2022-12-18T06:14:55;53.63;;;24.77;;
2053;SDS011;1032;52.542;13.440;2022-12-18T06:17:21;49.92;;;23.08;;
2053;SDS011;1032;52.542;13.440;2022-12-18T06:19:48;57.80;;;27.17;;
2053;SDS011;1032;52.542;13.440;2022-12-18T06:22:15;51.05;;;25.15;;
2053;SDS011;1032;52.542;13.440;2022-12-18T06:24:41;51.92;;;24.90;;
2053;SDS011;1032;52.542;13.440;2022-12-18T06:27:08;54.10;;;25.85;;
2053;SDS011;1032;52.542;13.440;2022-12-18T06:29:36;50.10;;;24.80;;
2053;SDS011;1032;52.542;13.440;2022-12-18T06:32:02;53.92;;;22.60;;
2053;SDS011;1032;52.542;13.440;2022-12-18T06:34:29;52.58;;;24.75;;
2053;SDS011;1032;52.542;13.440;2022-12-18T06:36:56;46.13;;;23.60;;
2053;SDS011;1032;52.542;13.440;2022-12-18T06:39:22;52.65;;;24.40;;
2053;SDS011;1032;52.542;13.440;2022-12-18T06:41:49;56.30;;;23.60;;
2053;SDS011;1032;52.542;13.440;2022-12-18T06:44:16;54.60;;;25.60;;
2053;SDS011;1032;52.542;13.440;2022-12-18T06:46:44;64.70;;;25.70;;
2053;SDS011;1032;52.542;13.440;2022-12-18T06:49:10;54.88;;;25.98;;
2053;SDS011;1032;52.542;13.440;2022-12-18T06:51:37;55.53;;;26.30;;
2053;SDS011;1032;52.542;13.440;2022-12-18T06:54:04;59.05;;;24.58;;
2053;SDS011;1032;52.542;13.440;2022-12-18T06:56:31;48.85;;;24.33;;
2053;SDS011;1032;52.542;13.440;2022-12-18T06:58:57;45.33;;;24.05;;
2053;SDS011;1032;52.542;13.440;2022-12-18T07:01:24;51.47;;;25.25;;
2053;SDS011;1032;52.542;13.440;2022-12-18T07:03:52;51.92;;;23.80;;
2053;SDS011;1032;52.542;13.440;2022-12-18T07:06:21;48.65;;;23.33;;
2053;SDS011;1032;52.542;13.440;2022-12-18T07:08:49;43.20;;;22.80;;
2053;SDS011;1032;52.542;13.440;2022-12-18T07:11:17;51.50;;;23.92;;
2053;SDS011;1032;52.542;13.440;2022-12-18T07:13:45;50.33;;;22.95;;
2053;SDS011;1032;52.542;13.440;2022-12-18T07:16:13;46.97;;;22.90;;
2053;SDS011;1032;52.542;13.440;2022-12-18T07:18:41;52.20;;;24.73;;
2053;SDS011;1032;52.542;13.440;2022-12-18T07:21:11;45.20;;;20.95;;
2053;SDS011;1032;52.542;13.440;2022-12-18T07:23:42;49.42;;;23.33;;
2053;SDS011;1032;52.542;13.440;2022-12-18T07:26:10;55.30;;;24.23;;
2053;SDS011;1032;52.542;13.440;2022-12-18T07:28:38;49.03;;;21.83;;
2053;SDS011;1032;52.542;13.440;2022-12-18T07:31:07;52.15;;;22.80;;
2053;SDS011;1032;52.542;13.440;2022-12-18T07:33:35;50.03;;;23.00;;
2053;SDS011;1032;52.542;13.440;2022-12-18T07:36:02;51.33;;;23.65;;
2053;SDS011;1032;52.542;13.440;2022-12-18T07:38:32;52.33;;;24.80;;
2053;SDS011;1032;52.542;13.440;2022-12-18T07:41:00;51.58;;;25.33;;
2053;SDS011;1032;52.542;13.440;2022-12-18T07:43:26;54.90;;;23.90;;
2053;SDS011;1032;52.542;13.440;2022-12-18T07:45:53;47.30;;;21.92;;
2053;SDS011;1032;52.542;13.440;2022-12-18T07:48:20;48.80;;;23.60;;
2053;SDS011;1032;52.542;13.440;2022-12-18T07:50:46;57.25;;;25.65;;
2053;SDS011;1032;52.542;13.440;2022-12-18T07:53:13;47.60;;;21.85;;
2053;SDS011;1032;52.542;13.440;2022-12-18T07:55:41;42.60;;;24.10;;
2053;SDS011;1032;52.542;13.440;2022-12-18T07:58:08;44.60;;;22.13;;
2053;SDS011;1032;52.542;13.440;2022-12-18T08:00:34;45.20;;;22.30;;
2053;SDS011;1032;52.542;13.440;2022-12-18T08:03:01;48.88;;;23.05;;
2053;SDS011;1032;52.542;13.440;2022-12-18T08:05:28;51.22;;;22.55;;
2053;SDS011;1032;52.542;13.440;2022-12-18T08:07:54;50.55;;;24.98;;
2053;SDS011;1032;52.542;13.440;2022-12-18T08:10:21;46.42;;;23.77;;
2053;SDS011;1032;52.542;13.440;2022-12-18T08:12:50;50.30;;;23.27;;
2053;SDS011;1032;52.542;13.440;2022-12-18T08:15:17;47.30;;;22.83;;
2053;SDS011;1032;52.542;13.440;2022-12-18T08:17:44;49.65;;;23.90;;
2053;SDS011;1032;52.542;13.440;2022-12-18T08:20:10;44.00;;;23.65;;
2053;SDS011;1032;52.542;13.440;2022-12-18T08:22:38;47.03;;;24.17;;
2053;SDS011;1032;52.542;13.440;2022-12-18T08:25:06;44.65;;;22.17;;
2053;SDS011;1032;52.542;13.440;2022-12-18T08:27:33;40.35;;;21.00;;
2053;SDS011;1032;52.542;13.440;2022-12-18T08:30:01;42.55;;;22.23;;
2053;SDS011;1032;52.542;13.440;2022-12-18T08:32:28;43.25;;;21.30;;
2053;SDS011;1032;52.542;13.440;2022-12-18T08:34:55;44.55;;;20.52;;
2053;SDS011;1032;52.542;13.440;2022-12-18T08:37:22;39.47;;;21.42;;
2053;SDS011;1032;52.542;13.440;2022-12-18T08:39:48;41.10;;;20.48;;
2053;SDS011;1032;52.542;13.440;2022-12-18T08:42:15;37.70;;;20.10;;
2053;SDS011;1032;52.542;13.440;2022-12-18T08:45:01;47.28;;;23.65;;
2053;SDS011;1032;52.542;13.440;2022-12-18T08:47:28;35.47;;;18.88;;
2053;SDS011;1032;52.542;13.440;2022-12-18T08:49:55;39.58;;;19.77;;
2053;SDS011;1032;52.542;13.440;2022-12-18T08:52:22;46.53;;;22.05;;
2053;SDS011;1032;52.542;13.440;2022-12-18T08:54:48;35.28;;;18.58;;
2053;SDS011;1032;52.542;13.440;2022-12-18T08:57:15;37.72;;;20.25;;
2053;SDS011;1032;52.542;13.440;2022-12-18T08:59:41;37.60;;;21.40;;
2053;SDS011;1032;52.542;13.440;2022-12-18T09:02:10;42.22;;;21.65;;
2053;SDS011;1032;52.542;13.440;2022-12-18T09:04:37;37.30;;;19.73;;
2053;SDS011;1032;52.542;13.440;2022-12-18T09:07:04;34.33;;;20.02;;
2053;SDS011;1032;52.542;13.440;2022-12-18T09:09:31;42.58;;;21.20;;
2053;SDS011;1032;52.542;13.440;2022-12-18T09:11:58;41.65;;;19.10;;
2053;SDS011;1032;52.542;13.440;2022-12-18T09:14:24;42.05;;;20.27;;
2053;SDS011;1032;52.542;13.440;2022-12-18T09:16:51;35.47;;;19.15;;
2053;SDS011;1032;52.542;13.440;2022-12-18T09:19:19;45.92;;;20.52;;
2053;SDS011;1032;52.542;13.440;2022-12-18T09:21:45;35.28;;;19.80;;
2053;SDS011;1032;52.542;13.440;2022-12-18T09:24:12;36.95;;;19.40;;
2053;SDS011;1032;52.542;13.440;2022-12-18T09:26:39;39.15;;;21.50;;
2053;SDS011;1032;52.542;13.440;2022-12-18T09:29:06;41.30;;;19.17;;
2053;SDS011;1032;52.542;13.440;2022-12-18T09:31:33;37.40;;;19.63;;
2053;SDS011;1032;52.542;13.440;2022-12-18T09:34:00;39.92;;;20.58;;
2053;SDS011;1032;52.542;13.440;2022-12-18T09:36:28;41.17;;;21.08;;
2053;SDS011;1032;52.542;13.440;2022-12-18T09:38:54;41.25;;;21.92;;
2053;SDS011;1032;52.542;13.440;2022-12-18T09:41:30;42.63;;;21.02;;
2053;SDS011;1032;52.542;13.440;2022-12-18T09:44:05;46.53;;;22.60;;
2053;SDS011;1032;52.542;13.440;2022-12-18T09:46:49;45.42;;;21.45;;
2053;SDS011;1032;52.542;13.440;2022-12-18T09:49:20;35.60;;;19.75;;
2053;SDS011;1032;52.542;13.440;2022-12-18T09:51:52;45.33;;;21.23;;
2053;SDS011;1032;52.542;13.440;2022-12-18T09:54:24;49.42;;;22.88;;
2053;SDS011;1032;52.542;13.440;2022-12-18T09:56:58;48.55;;;23.00;;
2053;SDS011;1032;52.542;13.440;2022-12-18T09:59:26;45.65;;;24.23;;
2053;SDS011;1032;52.542;13.440;2022-12-18T10:01:56;42.25;;;20.92;;
2053;SDS011;1032;52.542;13.440;2022-12-18T10:04:23;43.03;;;21.25;;
2053;SDS011;1032;52.542;13.440;2022-12-18T10:06:54;47.60;;;22.23;;
2053;SDS011;1032;52.542;13.440;2022-12-18T10:09:30;41.10;;;21.25;;
2053;SDS011;1032;52.542;13.440;2022-12-18T10:12:05;41.05;;;20.05;;
2053;SDS011;1032;52.542;13.440;2022-12-18T10:14:41;42.65;;;21.00;;
2053;SDS011;1032;52.542;13.440;2022-12-18T10:17:13;44.35;;;22.48;;
2053;SDS011;1032;52.542;13.440;2022-12-18T10:19:49;40.08;;;21.85;;
2053;SDS011;1032;52.542;13.440;2022-12-18T10:22:28;41.17;;;20.67;;
2053;SDS011;1032;52.542;13.440;2022-12-18T10:25:03;45.92;;;24.13;;
2053;SDS011;1032;52.542;13.440;2022-12-18T10:27:41;38.83;;;20.17;;
2053;SDS011;1032;52.542;13.440;2022-12-18T10:30:11;49.80;;;22.83;;
2053;SDS011;1032;52.542;13.440;2022-12-18T10:32:40;40.20;;;22.60;;
2053;SDS011;1032;52.542;13.440;2022-12-18T10:35:07;48.22;;;24.33;;
2053;SDS011;1032;52.542;13.440;2022-12-18T10:40:47;46.58;;;23.38;;
2053;SDS011;1032;52.542;13.440;2022-12-18T10:43:16;41.38;;;21.08;;
2053;SDS011;1032;52.542;13.440;2022-12-18T10:45:57;51.40;;;25.30;;
2053;SDS011;1032;52.542;13.440;2022-12-18T10:48:25;46.83;;;24.13;;
2053;SDS011;1032;52.542;13.440;2022-12-18T10:50:53;49.75;;;24.83;;
2053;SDS011;1032;52.542;13.440;2022-12-18T10:53:20;51.15;;;25.80;;
2053;SDS011;1032;52.542;13.440;2022-12-18T10:55:50;47.63;;;22.95;;
2053;SDS011;1032;52.542;13.440;2022-12-18T10:58:28;47.40;;;22.27;;
2053;SDS011;1032;52.542;13.440;2022-12-18T11:01:07;47.22;;;24.35;;
2053;SDS011;1032;52.542;13.440;2022-12-18T11:03:37;44.72;;;23.58;;
2053;SDS011;1032;52.542;13.440;2022-12-18T11:06:06;47.10;;;23.85;;
2053;SDS011;1032;52.542;13.440;2022-12-18T11:08:35;51.45;;;25.67;;
2053;SDS011;1032;52.542;13.440;2022-12-18T11:11:03;55.58;;;25.98;;
2053;SDS011;1032;52.542;13.440;2022-12-18T11:13:33;51.13;;;24.38;;
2053;SDS011;1032;52.542;13.440;2022-12-18T11:16:00;56.17;;;24.77;;
2053;SDS011;1032;52.542;13.440;2022-12-18T11:18:27;49.47;;;24.98;;
2053;SDS011;1032;52.542;13.440;2022-12-18T11:20:56;54.78;;;26.88;;
2053;SDS011;1032;52.542;13.440;2022-12-18T11:23:25;49.13;;;24.27;;
2053;SDS011;1032;52.542;13.440;2022-12-18T11:25:54;48.25;;;25.17;;
2053;SDS011;1032;52.542;13.440;2022-12-18T11:28:28;42.30;;;22.50;;
2053;SDS011;1032;52.542;13.440;2022-12-18T11:31:10;44.60;;;24.77;;
2053;SDS011;1032;52.542;13.440;2022-12-18T11:33:44;54.58;;;27.05;;
2053;SDS011;1032;52.542;13.440;2022-12-18T11:36:14;48.90;;;22.63;;
2053;SDS011;1032;52.542;13.440;2022-12-18T11:38:43;47.10;;;24.90;;
2053;SDS011;1032;52.542;13.440;2022-12-18T11:41:13;40.53;;;22.15;;
2053;SDS011;1032;52.542;13.440;2022-12-18T11:43:48;41.05;;;23.25;;
2053;SDS011;1032;52.542;13.440;2022-12-18T11:46:19;44.55;;;22.13;;
2053;SDS011;1032;52.542;13.440;2022-12-18T11:48:54;39.22;;;23.30;;
2053;SDS011;1032;52.542;13.440;2022-12-18T11:51:28;45.97;;;24.67;;
2053;SDS011;1032;52.542;13.440;2022-12-18T11:54:00;38.40;;;21.08;;
2053;SDS011;1032;52.542;13.440;2022-12-18T11:56:29;44.10;;;22.45;;
2053;SDS011;1032;52.542;13.440;2022-12-18T11:59:04;46.67;;;22.80;;
2053;SDS011;1032;52.542;13.440;2022-12-18T12:01:43;42.25;;;22.80;;
2053;SDS011;1032;52.542;13.440;2022-12-18T12:04:18;53.85;;;23.77;;
2053;SDS011;1032;52.542;13.440;2022-12-18T12:07:00;39.45;;;22.98;;
2053;SDS011;1032;52.542;13.440;2022-12-18T12:09:39;44.67;;;22.67;;
2053;SDS011;1032;52.542;13.440;2022-12-18T12:12:20;42.38;;;22.00;;
2053;SDS011;1032;52.542;13.440;2022-12-18T12:14:57;41.60;;;22.88;;
2053;SDS011;1032;52.542;13.440;2022-12-18T12:17:33;41.20;;;23.23;;
2053;SDS011;1032;52.542;13.440;2022-12-18T12:20:06;40.85;;;23.85;;
2053;SDS011;1032;52.542;13.440;2022-12-18T12:22:41;45.08;;;24.23;;
2053;SDS011;1032;52.542;13.440;2022-12-18T12:25:18;43.20;;;22.23;;
2053;SDS011;1032;52.542;13.440;2022-12-18T12:27:56;41.85;;;23.70;;
2053;SDS011;1032;52.542;13.440;2022-12-18T12:30:34;36.95;;;21.23;;
2053;SDS011;1032;52.542;13.440;2022-12-18T12:33:12;38.95;;;21.35;;
2053;SDS011;1032;52.542;13.440;2022-12-18T12:35:46;40.20;;;23.42;;
2053;SDS011;1032;52.542;13.440;2022-12-18T12:38:21;42.55;;;21.83;;
2053;SDS011;1032;52.542;13.440;2022-12-18T12:40:53;42.47;;;23.38;;
2053;SDS011;1032;52.542;13.440;2022-12-18T12:43:27;40.80;;;23.25;;
2053;SDS011;1032;52.542;13.440;2022-12-18T12:46:02;42.03;;;21.95;;
2053;SDS011;1032;52.542;13.440;2022-12-18T12:48:41;39.03;;;22.60;;
2053;SDS011;1032;52.542;13.440;2022-12-18T12:51:12;44.58;;;23.52;;
2053;SDS011;1032;52.542;13.440;2022-12-18T12:53:42;35.92;;;21.20;;
2053;SDS011;1032;52.542;13.440;2022-12-18T12:56:10;41.72;;;22.48;;
2053;SDS011;1032;52.542;13.440;2022-12-18T12:58:41;36.08;;;22.33;;
2053;SDS011;1032;52.542;13.440;2022-12-18T13:01:19;35.72;;;20.85;;
2053;SDS011;1032;52.542;13.440;2022-12-18T13:03:56;37.28;;;21.27;;
2053;SDS011;1032;52.542;13.440;2022-12-18T13:06:32;40.03;;;20.10;;
2053;SDS011;1032;52.542;13.440;2022-12-18T13:09:06;42.97;;;23.40;;
2053;SDS011;1032;52.542;13.440;2022-12-18T13:11:35;45.58;;;23.02;;
2053;SDS011;1032;52.542;13.440;2022-12-18T13:14:22;37.63;;;22.35;;
2053;SDS011;1032;52.542;13.440;2022-12-18T13:16:51;38.45;;;20.63;;
2053;SDS011;1032;52.542;13.440;2022-12-18T13:19:38;38.97;;;20.42;;
2053;SDS011;1032;52.542;13.440;2022-12-18T13:22:12;30.92;;;19.98;;
2053;SDS011;1032;52.542;13.440;2022-12-18T13:24:47;35.30;;;20.05;;
2053;SDS011;1032;52.542;13.440;2022-12-18T13:36:27;37.00;;;20.10;;
2053;SDS011;1032;52.542;13.440;2022-12-18T13:39:15;33.65;;;20.63;;
2053;SDS011;1032;52.542;13.440;2022-12-18T13:41:49;39.13;;;20.10;;
2053;SDS011;1032;52.542;13.440;2022-12-18T13:44:23;29.85;;;19.73;;
2053;SDS011;1032;52.542;13.440;2022-12-18T13:46:54;31.95;;;18.30;;
2053;SDS011;1032;52.542;13.440;2022-12-18T13:49:22;30.67;;;18.52;;
2053;SDS011;1032;52.542;13.440;2022-12-18T13:51:52;36.50;;;20.55;;
2053;SDS011;1032;52.542;13.440;2022-12-18T13:54:22;35.15;;;20.75;;
2053;SDS011;1032;52.542;13.440;2022-12-18T13:56:54;34.25;;;19.58;;
2053;SDS011;1032;52.542;13.440;2022-12-18T13:59:21;32.90;;;20.83;;
2053;SDS011;1032;52.542;13.440;2022-12-18T14:01:51;35.20;;;21.95;;
2053;SDS011;1032;52.542;13.440;2022-12-18T14:04:20;38.58;;;22.40;;
2053;SDS011;1032;52.542;13.440;2022-12-18T14:06:50;36.13;;;20.63;;
2053;SDS011;1032;52.542;13.440;2022-12-18T14:09:23;37.63;;;21.48;;
2053;SDS011;1032;52.542;13.440;2022-12-18T14:11:51;43.08;;;22.98;;
2053;SDS011;1032;52.542;13.440;2022-12-18T14:14:40;42.17;;;24.60;;
2053;SDS011;1032;52.542;13.440;2022-12-18T14:17:09;39.63;;;24.55;;
2053;SDS011;1032;52.542;13.440;2022-12-18T14:19:37;36.33;;;24.27;;
2053;SDS011;1032;52.542;13.440;2022-12-18T14:22:12;37.00;;;23.85;;
2053;SDS011;1032;52.542;13.440;2022-12-18T14:24:42;43.40;;;24.92;;
2053;SDS011;1032;52.542;13.440;2022-12-18T14:27:13;43.15;;;25.48;;
2053;SDS011;1032;52.542;13.440;2022-12-18T14:29:47;40.22;;;25.52;;
2053;SDS011;1032;52.542;13.440;2022-12-18T14:32:14;37.45;;;22.50;;
2053;SDS011;1032;52.542;13.440;2022-12-18T14:34:43;40.90;;;23.50;;
2053;SDS011;1032;52.542;13.440;2022-12-18T14:37:10;35.58;;;21.80;;
2053;SDS011;1032;52.542;13.440;2022-12-18T14:39:39;35.80;;;22.73;;
2053;SDS011;1032;52.542;13.440;2022-12-18T14:42:09;37.20;;;22.00;;
2053;SDS011;1032;52.542;13.440;2022-12-18T14:44:36;30.95;;;20.80;;
2053;SDS011;1032;52.542;13.440;2022-12-18T14:47:03;34.83;;;21.13;;
2053;SDS011;1032;52.542;13.440;2022-12-18T14:49:30;33.13;;;20.17;;
2053;SDS011;1032;52.542;13.440;2022-12-18T14:52:02;31.13;;;20.60;;
2053;SDS011;1032;52.542;13.440;2022-12-18T14:54:32;35.53;;;21.00;;
2053;SDS011;1032;52.542;13.440;2022-12-18T14:57:01;27.77;;;18.80;;
2053;SDS011;1032;52.542;13.440;2022-12-18T14:59:30;27.98;;;17.35;;
2053;SDS011;1032;52.542;13.440;2022-12-18T15:01:58;29.67;;;19.38;;
2053;SDS011;1032;52.542;13.440;2022-12-18T15:04:30;31.98;;;21.27;;